Terminal Aerodrome Forecast
Issued by NWS

Home | Current Version | Previous Version | Text Only | Print | Product List | Glossary On
Versions: 1 2 3 4 5 6 7 8 9 10 11 12 13 14 15 16 17 18 19 20 21 22 23 24
000
FTAK31 PAJN 171700 RRA
TAFAYA
TAF
PAYA 171743Z 1718/1818 08005KT P6SM SCT020 BKN070 OVC150
      TEMPO 1718/1722 BKN020
     FM172200 11006KT P6SM -RA SCT015 BKN025 OVC060
     FM180600 09007KT P6SM VCSH SCT025 BKN040 OVC060
     FM181200 07005KT P6SM VCSH SCT040 BKN070 OVC100
      AMD LTD TO CLD VIS AND WIND 1801/1810=

USA.gov is the U.S. government's official web portal to all federal, state and local government web resources and services.